Time;durP1;ratioP1;P1;durP2;ratioP2;P2;SDS_P1;SDS_P2;PMS_P1;PMS_P2;Temp;Humidity;BMP_temperature;BMP_pressure;BME280_temperature;BME280_humidity;BME280_pressure;Samples;Min_cycle;Max_cycle;Signal;HPM_P1;HPM_P2
2021/01/27 00:01:12;;;;;;;0.88;0.70;;;19.40;45.10;;;;;;5012697;28;20390;-39
2021/01/27 00:03:39;;;;;;;1.02;0.70;;;19.30;45.00;;;;;;5017967;28;20542;-39
2021/01/27 00:06:05;;;;;;;1.17;0.80;;;19.40;45.10;;;;;;5010325;28;20049;-40
2021/01/27 00:08:32;;;;;;;0.60;0.60;;;19.30;45.00;;;;;;5008876;28;20072;-39
2021/01/27 00:10:59;;;;;;;1.45;0.90;;;19.30;45.00;;;;;;5011344;28;20108;-40
2021/01/27 00:13:25;;;;;;;1.02;0.80;;;19.30;45.00;;;;;;5010524;28;20398;-42
2021/01/27 00:15:52;;;;;;;1.00;0.68;;;19.30;45.00;;;;;;5009522;28;20045;-40
2021/01/27 00:18:20;;;;;;;0.60;0.60;;;19.30;45.00;;;;;;5011450;28;20128;-42
2021/01/27 00:20:48;;;;;;;1.55;0.80;;;19.30;45.00;;;;;;5009612;28;20065;-41
2021/01/27 00:23:15;;;;;;;0.93;0.77;;;19.30;45.00;;;;;;5008790;28;20049;-40
2021/01/27 00:25:42;;;;;;;1.25;0.95;;;19.30;45.00;;;;;;5007859;28;20137;-42
2021/01/27 00:28:09;;;;;;;1.13;0.70;;;19.30;45.00;;;;;;5010143;28;20097;-40
2021/01/27 00:30:39;;;;;;;1.10;0.70;;;19.30;45.00;;;;;;5009917;28;20124;-43
2021/01/27 00:33:09;;;;;;;0.68;0.60;;;19.30;45.00;;;;;;5024916;28;20046;-40
2021/01/27 00:35:39;;;;;;;1.25;0.85;;;19.30;45.00;;;;;;5023912;28;20048;-40
2021/01/27 00:38:15;;;;;;;0.98;0.80;;;19.30;45.00;;;;;;5008718;28;20193;-40
2021/01/27 00:40:42;;;;;;;1.08;0.70;;;19.30;45.00;;;;;;5010140;28;20330;-42
2021/01/27 00:43:10;;;;;;;0.63;0.60;;;19.30;45.00;;;;;;5008884;28;20112;-40
2021/01/27 00:45:37;;;;;;;1.08;0.90;;;19.30;45.00;;;;;;4993045;28;20165;-40
2021/01/27 00:48:05;;;;;;;1.23;0.85;;;19.30;45.00;;;;;;5010448;28;20096;-40
2021/01/27 00:50:31;;;;;;;0.70;0.70;;;19.30;45.00;;;;;;5010192;28;20269;-40
2021/01/27 00:52:58;;;;;;;0.77;0.77;;;19.30;45.00;;;;;;5009703;28;20112;-41
2021/01/27 00:55:27;;;;;;;0.65;0.65;;;19.30;45.10;;;;;;5008334;28;20050;-41
2021/01/27 00:57:54;;;;;;;0.73;0.68;;;19.30;45.00;;;;;;5008444;28;20474;-40
2021/01/27 01:00:43;;;;;;;1.00;0.65;;;19.30;45.00;;;;;;5009396;28;20053;-41
2021/01/27 01:03:11;;;;;;;1.23;0.82;;;19.30;45.00;;;;;;5015541;28;20578;-41
2021/01/27 01:05:41;;;;;;;0.70;0.70;;;19.30;45.10;;;;;;5008303;28;20453;-42
2021/01/27 01:08:11;;;;;;;1.13;0.80;;;19.30;45.00;;;;;;5009704;28;20050;-40
2021/01/27 01:10:41;;;;;;;1.58;0.85;;;19.30;45.00;;;;;;5009468;28;20054;-39
2021/01/27 01:13:14;;;;;;;0.70;0.65;;;19.30;45.00;;;;;;5009786;28;20378;-40
2021/01/27 01:15:41;;;;;;;1.13;0.70;;;19.30;45.10;;;;;;5008499;28;20038;-41
2021/01/27 01:18:09;;;;;;;1.10;0.90;;;19.30;45.10;;;;;;5009518;28;20046;-40
2021/01/27 01:20:36;;;;;;;1.90;0.80;;;19.30;45.10;;;;;;5009909;28;20490;-41
2021/01/27 01:23:03;;;;;;;0.68;0.60;;;19.30;45.10;;;;;;5010822;28;20049;-39
2021/01/27 01:25:32;;;;;;;0.95;0.80;;;19.30;45.00;;;;;;5008108;28;20046;-40
2021/01/27 01:28:00;;;;;;;1.25;1.15;;;19.30;45.00;;;;;;5007888;28;20074;-39
2021/01/27 01:30:36;;;;;;;1.00;0.80;;;19.30;45.00;;;;;;5007997;28;20049;-40
2021/01/27 01:33:25;;;;;;;2.00;0.90;;;19.30;45.10;;;;;;5008183;28;20054;-40
2021/01/27 01:35:51;;;;;;;0.80;0.77;;;19.30;45.10;;;;;;5009141;28;20050;-40
2021/01/27 01:38:19;;;;;;;0.75;0.75;;;19.30;45.10;;;;;;5013237;28;20072;-41
2021/01/27 01:41:02;;;;;;;1.15;0.93;;;19.30;45.10;;;;;;5012882;28;20452;-41
2021/01/27 01:43:31;;;;;;;0.80;0.80;;;19.30;45.10;;;;;;5012934;28;20046;-39
2021/01/27 01:46:18;;;;;;;0.88;0.70;;;19.30;45.10;;;;;;5012607;28;20410;-39
2021/01/27 01:48:48;;;;;;;0.80;0.80;;;19.30;45.00;;;;;;5012759;28;20041;-40
2021/01/27 01:51:55;;;;;;;1.17;0.70;;;19.30;45.10;;;;;;5012969;28;20046;-40
2021/01/27 01:54:49;;;;;;;1.05;0.70;;;19.30;45.10;;;;;;5012789;28;20119;-39
2021/01/27 01:57:27;;;;;;;0.90;0.70;;;19.30;45.10;;;;;;5011620;28;20050;-39
2021/01/27 02:00:08;;;;;;;0.90;0.70;;;19.20;45.00;;;;;;5012790;28;20045;-39
2021/01/27 02:02:38;;;;;;;1.15;0.88;;;19.20;45.00;;;;;;5012482;28;20053;-40
2021/01/27 02:05:12;;;;;;;0.90;0.65;;;19.30;45.10;;;;;;5026176;28;20077;-39
2021/01/27 02:07:38;;;;;;;;;;;19.20;45.00;;;;;;5011438;28;20038;-39
2021/01/27 02:10:07;;;;;;;1.10;0.70;;;19.30;45.10;;;;;;5011407;28;20328;-40
2021/01/27 02:13:11;;;;;;;0.70;0.60;;;19.20;45.00;;;;;;5010789;28;20160;-40
2021/01/27 02:16:03;;;;;;;1.20;0.77;;;19.20;45.00;;;;;;4972979;28;20522;-40
2021/01/27 02:19:05;;;;;;;0.80;0.70;;;19.20;45.10;;;;;;4973101;28;20518;-39
2021/01/27 02:21:50;;;;;;;0.63;0.63;;;19.20;45.10;;;;;;4972911;28;20046;-39
2021/01/27 02:24:33;;;;;;;0.73;0.60;;;19.20;45.10;;;;;;4970534;28;20097;-39
2021/01/27 02:27:30;;;;;;;0.85;0.73;;;19.20;45.10;;;;;;4981698;28;20058;-39
2021/01/27 02:29:57;;;;;;;1.13;0.70;;;19.20;45.10;;;;;;4970386;28;20054;-39
2021/01/27 02:32:23;;;;;;;1.45;0.70;;;19.20;45.10;;;;;;4986546;28;20050;-39
2021/01/27 02:35:22;;;;;;;1.40;0.65;;;19.20;45.10;;;;;;4986658;28;20469;-39
2021/01/27 02:37:55;;;;;;;0.70;0.65;;;19.20;45.10;;;;;;4986503;28;20539;-39
2021/01/27 02:40:44;;;;;;;0.85;0.73;;;19.20;45.10;;;;;;4986452;28;20050;-39
2021/01/27 02:43:28;;;;;;;0.75;0.60;;;19.20;45.10;;;;;;4984994;28;20054;-40
2021/01/27 02:46:00;;;;;;;0.82;0.70;;;19.20;45.10;;;;;;4986415;28;20043;-40
2021/01/27 02:48:55;;;;;;;0.90;0.85;;;19.20;45.10;;;;;;4985665;28;20580;-40
2021/01/27 02:51:28;;;;;;;;;;;19.20;45.10;;;;;;4991526;28;20057;-39
2021/01/27 02:54:20;;;;;;;0.85;0.70;;;19.20;45.10;;;;;;5011522;28;20369;-39
2021/01/27 02:57:14;;;;;;;0.60;0.60;;;19.20;45.10;;;;;;5011492;28;20061;-39
2021/01/27 02:59:47;;;;;;;0.82;0.80;;;19.20;45.10;;;;;;5011493;28;20104;-39
2021/01/27 03:02:48;;;;;;;0.70;0.70;;;19.20;45.10;;;;;;5022268;28;20417;-40
2021/01/27 03:05:29;;;;;;;0.70;0.57;;;19.20;45.10;;;;;;4972101;28;20459;-39
2021/01/27 03:08:08;;;;;;;0.80;0.63;;;19.20;45.10;;;;;;4971045;28;20102;-39
2021/01/27 03:10:56;;;;;;;0.90;0.80;;;19.20;45.10;;;;;;4970897;28;20051;-39
2021/01/27 03:13:23;;;;;;;0.80;0.70;;;19.20;45.10;;;;;;4969789;28;20428;-39
2021/01/27 03:15:49;;;;;;;1.08;0.90;;;19.20;45.10;;;;;;4970729;28;20055;-40
2021/01/27 03:18:24;;;;;;;0.63;0.60;;;19.20;45.10;;;;;;4971846;28;20054;-40
2021/01/27 03:20:57;;;;;;;0.68;0.60;;;19.20;45.10;;;;;;4971879;28;20106;-41
2021/01/27 03:23:52;;;;;;;0.70;0.70;;;19.20;45.10;;;;;;4970919;28;20562;-39
2021/01/27 03:26:30;;;;;;;0.77;0.68;;;19.20;45.10;;;;;;4968958;28;20059;-40
2021/01/27 03:29:01;;;;;;;0.98;0.75;;;19.20;45.10;;;;;;4970671;28;20516;-40
2021/01/27 03:31:28;;;;;;;1.00;0.70;;;19.10;45.00;;;;;;4970429;28;20411;-41
2021/01/27 03:34:08;;;;;;;0.70;0.70;;;19.20;45.10;;;;;;4970469;28;20054;-40
2021/01/27 03:36:43;;;;;;;0.80;0.60;;;19.20;45.10;;;;;;4970480;28;20077;-40
2021/01/27 03:39:12;;;;;;;0.80;0.60;;;19.20;45.10;;;;;;4970347;28;20046;-39
2021/01/27 03:41:48;;;;;;;0.80;0.70;;;19.10;45.00;;;;;;4993965;28;20046;-39
2021/01/27 03:44:27;;;;;;;0.90;0.70;;;19.10;45.00;;;;;;5010437;28;20049;-39
2021/01/27 03:47:16;;;;;;;1.05;0.70;;;19.10;45.00;;;;;;5010658;28;20069;-39
2021/01/27 03:50:06;;;;;;;0.90;0.70;;;19.10;45.00;;;;;;5010519;28;20042;-39
2021/01/27 03:52:39;;;;;;;1.00;0.80;;;19.10;45.00;;;;;;5010355;28;20080;-39
2021/01/27 03:55:15;;;;;;;0.80;0.77;;;19.10;45.00;;;;;;5010692;28;20599;-39
2021/01/27 03:57:51;;;;;;;0.80;0.60;;;19.10;45.00;;;;;;5009488;28;20046;-39
2021/01/27 04:00:19;;;;;;;0.77;0.60;;;19.10;45.00;;;;;;5009160;28;20490;-39
2021/01/27 04:03:05;;;;;;;1.25;0.93;;;19.10;45.00;;;;;;5021829;28;20100;-40
2021/01/27 04:05:31;;;;;;;0.77;0.60;;;19.10;45.00;;;;;;4994259;28;20037;-39
2021/01/27 04:07:58;;;;;;;0.88;0.57;;;19.10;45.00;;;;;;5008743;28;20050;-42
2021/01/27 04:10:25;;;;;;;0.93;0.77;;;19.10;45.00;;;;;;5011293;28;20379;-39
2021/01/27 04:12:51;;;;;;;0.73;0.50;;;19.10;45.00;;;;;;5010408;28;20478;-39
2021/01/27 04:15:18;;;;;;;0.75;0.55;;;19.10;45.00;;;;;;5010180;28;20053;-39
2021/01/27 04:17:45;;;;;;;0.80;0.75;;;19.10;45.00;;;;;;5011121;28;20046;-39
2021/01/27 04:20:12;;;;;;;0.65;0.60;;;19.10;45.30;;;;;;5010410;28;20080;-39
2021/01/27 04:22:39;;;;;;;0.60;0.60;;;19.10;45.00;;;;;;5008767;28;20080;-39
2021/01/27 04:25:06;;;;;;;0.85;0.70;;;19.10;45.00;;;;;;5009463;28;20136;-40
2021/01/27 04:27:33;;;;;;;0.95;0.80;;;19.10;45.00;;;;;;5009703;28;20053;-40
2021/01/27 04:30:00;;;;;;;0.85;0.70;;;19.10;45.00;;;;;;5025286;28;20046;-39
2021/01/27 04:32:26;;;;;;;0.63;0.60;;;19.10;45.00;;;;;;5010283;28;20103;-40
2021/01/27 04:34:54;;;;;;;1.17;0.77;;;19.10;45.00;;;;;;5011310;28;20046;-40
2021/01/27 04:37:20;;;;;;;0.98;0.73;;;19.10;45.00;;;;;;5010062;28;20100;-39
2021/01/27 04:39:47;;;;;;;0.52;0.50;;;19.10;45.00;;;;;;5010999;28;20060;-39
2021/01/27 04:42:14;;;;;;;0.77;0.60;;;19.10;45.00;;;;;;5010071;28;20054;-39
2021/01/27 04:44:41;;;;;;;0.88;0.60;;;19.10;45.00;;;;;;5008440;28;20497;-39
2021/01/27 04:47:19;;;;;;;0.80;0.75;;;19.10;45.00;;;;;;5010123;28;20045;-40
2021/01/27 04:49:58;;;;;;;0.40;0.40;;;19.10;45.00;;;;;;5023435;28;20049;-39
2021/01/27 04:52:49;;;;;;;1.00;0.70;;;19.10;45.00;;;;;;5008647;28;20471;-41
2021/01/27 04:55:29;;;;;;;1.02;0.90;;;19.10;45.00;;;;;;5010027;28;20437;-39
2021/01/27 04:58:10;;;;;;;0.60;0.60;;;19.10;45.00;;;;;;5009650;28;20053;-39
2021/01/27 05:00:49;;;;;;;0.98;0.80;;;19.10;45.10;;;;;;5008276;28;20903;-39
2021/01/27 05:03:47;;;;;;;0.60;0.60;;;19.10;45.00;;;;;;5017931;28;20053;-40
2021/01/27 05:06:20;;;;;;;0.60;0.57;;;19.10;45.00;;;;;;5009891;28;20046;-40
2021/01/27 05:09:14;;;;;;;0.80;0.60;;;19.10;45.00;;;;;;5007181;28;20053;-41
2021/01/27 05:11:44;;;;;;;0.60;0.60;;;19.10;45.00;;;;;;5010097;28;20046;-39
2021/01/27 05:14:16;;;;;;;0.73;0.50;;;19.10;45.00;;;;;;5028775;28;20054;-40
2021/01/27 05:16:46;;;;;;;0.63;0.60;;;19.10;45.00;;;;;;5012166;28;20073;-40
2021/01/27 05:19:12;;;;;;;0.70;0.63;;;19.10;45.00;;;;;;5013333;28;20050;-39
2021/01/27 05:21:53;;;;;;;0.70;0.60;;;19.10;45.00;;;;;;5013150;28;20038;-39
2021/01/27 05:24:20;;;;;;;0.77;0.60;;;19.10;45.00;;;;;;5028503;28;20038;-39
2021/01/27 05:27:07;;;;;;;0.93;0.63;;;19.10;45.00;;;;;;5011769;28;20450;-40
2021/01/27 05:29:54;;;;;;;0.68;0.57;;;19.10;45.00;;;;;;5013243;28;20057;-41
2021/01/27 05:32:22;;;;;;;1.20;0.70;;;19.10;45.00;;;;;;5012979;28;20092;-39
2021/01/27 05:34:57;;;;;;;0.85;0.60;;;19.10;45.00;;;;;;5013443;28;20120;-41
2021/01/27 05:37:29;;;;;;;0.68;0.65;;;19.10;45.00;;;;;;5013160;28;20518;-43
2021/01/27 05:40:16;;;;;;;0.60;0.60;;;19.10;45.00;;;;;;4996513;28;24428;-40
2021/01/27 05:42:44;;;;;;;1.00;0.80;;;19.10;45.00;;;;;;4998244;28;20409;-41
2021/01/27 05:45:41;;;;;;;0.60;0.60;;;19.10;45.00;;;;;;5013468;28;20124;-40
2021/01/27 05:48:14;;;;;;;0.70;0.68;;;19.10;45.00;;;;;;4995736;28;20053;-41
2021/01/27 05:50:42;;;;;;;0.75;0.68;;;19.10;45.00;;;;;;5012212;28;20049;-40
2021/01/27 05:53:22;;;;;;;0.73;0.70;;;19.10;45.00;;;;;;5013536;28;20042;-41
2021/01/27 05:56:18;;;;;;;0.90;0.80;;;19.10;45.00;;;;;;5013851;28;20498;-39
2021/01/27 05:58:54;;;;;;;0.70;0.50;;;19.10;45.00;;;;;;5011696;28;20493;-41
2021/01/27 06:01:32;;;;;;;1.25;0.60;;;19.10;45.00;;;;;;5016581;28;20045;-41
2021/01/27 06:04:10;;;;;;;0.98;0.70;;;19.10;45.00;;;;;;5013824;28;20065;-39
2021/01/27 06:06:46;;;;;;;0.70;0.65;;;19.10;45.00;;;;;;5012579;28;20049;-39
2021/01/27 06:09:13;;;;;;;0.75;0.57;;;19.10;45.00;;;;;;5013229;28;20058;-39
2021/01/27 06:11:42;;;;;;;0.85;0.60;;;19.10;45.00;;;;;;5012208;28;20046;-42
2021/01/27 06:14:17;;;;;;;0.70;0.63;;;19.10;45.00;;;;;;5012524;28;20453;-40
2021/01/27 06:16:49;;;;;;;1.20;0.70;;;19.10;45.60;;;;;;5012082;28;20136;-40
2021/01/27 06:19:25;;;;;;;0.45;0.45;;;19.10;45.00;;;;;;5010767;28;20133;-41
2021/01/27 06:22:13;;;;;;;1.13;0.52;;;19.00;44.90;;;;;;5013353;28;20474;-41
2021/01/27 06:24:58;;;;;;;0.88;0.52;;;19.10;45.00;;;;;;5010222;28;20046;-41
2021/01/27 06:27:25;;;;;;;;;;;19.10;45.00;;;;;;5012260;28;20061;-39
2021/01/27 06:30:12;;;;;;;0.80;0.70;;;19.10;45.00;;;;;;5010098;28;19964;-40
2021/01/27 06:33:18;;;;;;;0.70;0.63;;;19.10;45.00;;;;;;5013116;28;20509;-40
2021/01/27 06:36:11;;;;;;;0.73;0.63;;;19.10;45.10;;;;;;5011891;28;20526;-40
2021/01/27 06:38:46;;;;;;;1.10;0.70;;;19.10;45.00;;;;;;5011723;28;20104;-41
2021/01/27 06:41:21;;;;;;;0.77;0.50;;;19.10;45.00;;;;;;5011847;28;20057;-41
2021/01/27 06:43:55;;;;;;;1.05;0.60;;;19.10;45.00;;;;;;5012126;28;20049;-39
2021/01/27 06:46:56;;;;;;;1.00;0.50;;;19.10;45.00;;;;;;5010461;28;20050;-39
2021/01/27 06:49:45;;;;;;;0.50;0.50;;;19.10;45.00;;;;;;5012898;28;20048;-39
2021/01/27 06:52:30;;;;;;;0.70;0.60;;;19.10;45.00;;;;;;5011766;28;20104;-39
2021/01/27 06:55:44;;;;;;;0.50;0.50;;;19.10;45.00;;;;;;5011090;28;20049;-40
2021/01/27 06:58:34;;;;;;;0.50;0.50;;;19.10;45.00;;;;;;4991160;28;20054;-41
2021/01/27 07:01:40;;;;;;;0.90;0.70;;;19.10;45.00;;;;;;4994096;28;20077;-40
2021/01/27 07:04:22;;;;;;;0.57;0.52;;;19.10;45.00;;;;;;4989952;28;20054;-40
2021/01/27 07:07:30;;;;;;;0.82;0.70;;;19.10;45.00;;;;;;5011631;28;20042;-40
2021/01/27 07:10:17;;;;;;;0.65;0.60;;;19.10;45.60;;;;;;4972072;28;20043;-40
2021/01/27 07:12:49;;;;;;;0.65;0.63;;;19.10;45.00;;;;;;4972186;28;20083;-40
2021/01/27 07:15:30;;;;;;;1.15;0.70;;;19.10;45.00;;;;;;4971824;28;20077;-41
2021/01/27 07:18:05;;;;;;;0.70;0.60;;;19.10;45.00;;;;;;4971925;28;20140;-40
2021/01/27 07:20:37;;;;;;;0.45;0.40;;;19.10;44.90;;;;;;4971807;28;20588;-39
2021/01/27 07:23:40;;;;;;;0.80;0.70;;;19.10;44.90;;;;;;4968278;28;20084;-40
2021/01/27 07:26:20;;;;;;;0.50;0.50;;;19.10;44.90;;;;;;4969575;28;20050;-40
2021/01/27 07:29:05;;;;;;;1.08;0.80;;;19.10;44.90;;;;;;4971745;28;20070;-42
2021/01/27 07:31:44;;;;;;;2.15;0.70;;;19.10;45.00;;;;;;4964799;28;20057;-40
2021/01/27 07:34:41;;;;;;;0.73;0.60;;;19.10;44.90;;;;;;4976281;28;20058;-42
2021/01/27 07:37:19;;;;;;;0.40;0.40;;;19.10;44.90;;;;;;4979748;28;20486;-40
2021/01/27 07:40:01;;;;;;;0.50;0.45;;;19.10;44.90;;;;;;4976821;28;20042;-41
2021/01/27 07:42:34;;;;;;;0.75;0.60;;;19.10;44.90;;;;;;4979789;28;20518;-42
2021/01/27 07:45:10;;;;;;;0.63;0.52;;;19.10;44.90;;;;;;4975735;28;20487;-39
2021/01/27 07:47:46;;;;;;;0.73;0.63;;;19.10;44.90;;;;;;5007900;28;20053;-40
2021/01/27 07:50:16;;;;;;;0.70;0.68;;;19.10;44.90;;;;;;5010813;28;20045;-40
2021/01/27 07:52:52;;;;;;;0.68;0.57;;;19.10;44.80;;;;;;5010790;28;20049;-40
2021/01/27 07:55:24;;;;;;;0.82;0.60;;;19.10;44.80;;;;;;5010727;28;20046;-42
2021/01/27 07:57:58;;;;;;;0.80;0.70;;;19.10;44.90;;;;;;5010790;28;20165;-41
2021/01/27 08:00:34;;;;;;;0.63;0.47;;;19.20;44.90;;;;;;4994071;28;20133;-40
2021/01/27 08:03:26;;;;;;;1.15;0.70;;;19.20;45.00;;;;;;5021532;28;20144;-40
2021/01/27 08:06:03;;;;;;;0.60;0.55;;;19.20;44.90;;;;;;4993130;28;20042;-41
2021/01/27 08:08:30;;;;;;;1.33;0.63;;;19.20;45.00;;;;;;5010298;28;20046;-40
2021/01/27 08:11:11;;;;;;;0.77;0.60;;;19.20;44.90;;;;;;5010372;28;20054;-39
2021/01/27 08:13:41;;;;;;;1.30;0.70;;;19.20;44.90;;;;;;5011602;28;20049;-40
2021/01/27 08:16:15;;;;;;;0.60;0.52;;;19.20;44.90;;;;;;5011646;28;20409;-40
2021/01/27 08:19:07;;;;;;;0.63;0.50;;;19.20;44.90;;;;;;5009692;28;20573;-39
2021/01/27 08:21:46;;;;;;;1.02;0.70;;;19.20;44.90;;;;;;5010974;28;20513;-39
2021/01/27 08:24:37;;;;;;;0.65;0.60;;;19.20;44.90;;;;;;5010986;28;20058;-41
2021/01/27 08:27:09;;;;;;;0.73;0.60;;;19.20;44.90;;;;;;5009969;28;20050;-39
2021/01/27 08:29:42;;;;;;;1.00;0.80;;;19.20;44.90;;;;;;5010669;28;20621;-39
2021/01/27 08:32:30;;;;;;;0.57;0.57;;;19.20;44.90;;;;;;5008904;28;20045;-39
2021/01/27 08:35:07;;;;;;;1.00;0.60;;;19.20;44.90;;;;;;5010218;28;20053;-40
2021/01/27 08:37:37;;;;;;;0.50;0.50;;;19.20;44.90;;;;;;5009098;28;20492;-39
2021/01/27 08:40:21;;;;;;;0.57;0.50;;;19.20;44.90;;;;;;5010862;28;20057;-39
2021/01/27 08:42:53;;;;;;;0.57;0.50;;;19.20;44.90;;;;;;5023763;28;20112;-39
2021/01/27 08:45:22;;;;;;;0.95;0.60;;;19.20;44.80;;;;;;5008495;28;20069;-40
2021/01/27 08:48:09;;;;;;;0.57;0.50;;;19.20;44.80;;;;;;5008405;28;20056;-39
2021/01/27 08:50:42;;;;;;;0.80;0.77;;;19.20;44.90;;;;;;5008698;28;20050;-39
2021/01/27 08:53:10;;;;;;;0.60;0.50;;;19.20;44.90;;;;;;5008929;28;20041;-40
2021/01/27 08:55:46;;;;;;;0.60;0.50;;;19.20;44.90;;;;;;5010083;28;20449;-40
2021/01/27 08:58:40;;;;;;;0.82;0.63;;;19.20;44.80;;;;;;5009713;28;20069;-40
2021/01/27 09:01:08;;;;;;;0.57;0.50;;;19.20;44.80;;;;;;5011384;28;20111;-41
2021/01/27 09:03:42;;;;;;;0.60;0.60;;;19.20;44.80;;;;;;5015816;28;20045;-40
2021/01/27 09:06:21;;;;;;;0.60;0.55;;;19.20;44.80;;;;;;5008473;28;20050;-40
2021/01/27 09:08:48;;;;;;;0.77;0.50;;;19.20;44.80;;;;;;5009816;28;20046;-39
2021/01/27 09:11:19;;;;;;;0.80;0.80;;;19.20;44.80;;;;;;5008314;28;20437;-39
2021/01/27 09:13:46;;;;;;;0.68;0.68;;;19.20;44.80;;;;;;5024657;28;20049;-39
2021/01/27 09:16:19;;;;;;;0.60;0.60;;;19.20;44.80;;;;;;5024970;28;20121;-39
2021/01/27 09:19:00;;;;;;;0.60;0.50;;;19.20;45.40;;;;;;5009425;28;20129;-43
2021/01/27 09:21:28;;;;;;;0.60;0.52;;;19.20;44.80;;;;;;4993708;28;20049;-41
2021/01/27 09:23:57;;;;;;;0.68;0.57;;;19.30;45.00;;;;;;5010732;28;20054;-41
2021/01/27 09:26:44;;;;;;;0.77;0.52;;;19.30;44.90;;;;;;5008918;28;20060;-43
2021/01/27 09:29:22;;;;;;;0.63;0.45;;;19.30;45.00;;;;;;5009662;28;20042;-41
2021/01/27 09:31:49;;;;;;;0.82;0.60;;;19.30;44.90;;;;;;5010354;28;20046;-40
2021/01/27 09:34:26;;;;;;;0.70;0.70;;;19.30;44.90;;;;;;5010015;28;20045;-41
2021/01/27 09:36:59;;;;;;;0.60;0.57;;;19.30;44.90;;;;;;5008332;28;20124;-42
2021/01/27 09:39:30;;;;;;;;;;;19.30;44.90;;;;;;5009901;28;20046;-41
2021/01/27 09:42:00;;;;;;;0.55;0.50;;;19.30;44.90;;;;;;5010114;28;20619;-42
2021/01/27 09:44:37;;;;;;;0.65;0.52;;;19.30;44.90;;;;;;5009162;28;20053;-42
2021/01/27 09:47:13;;;;;;;0.80;0.50;;;19.30;44.90;;;;;;5007813;28;20042;-43
2021/01/27 09:49:49;;;;;;;1.17;0.60;;;19.30;44.90;;;;;;5009510;28;20440;-40
2021/01/27 09:52:17;;;;;;;0.85;0.60;;;19.30;44.90;;;;;;5009379;28;20081;-39
2021/01/27 09:54:51;;;;;;;0.80;0.70;;;19.30;44.90;;;;;;5024356;28;20046;-40
2021/01/27 09:57:20;;;;;;;0.88;0.60;;;19.30;44.80;;;;;;5008977;28;20486;-42
2021/01/27 09:59:53;;;;;;;0.80;0.70;;;19.30;44.80;;;;;;5011973;28;20045;-41
2021/01/27 10:02:32;;;;;;;1.73;0.80;;;19.30;44.90;;;;;;5017443;28;20489;-42
2021/01/27 10:05:00;;;;;;;0.60;0.60;;;19.30;44.80;;;;;;5012519;28;20559;-40
2021/01/27 10:07:37;;;;;;;0.80;0.70;;;19.30;44.80;;;;;;5012715;28;20455;-38
2021/01/27 10:10:12;;;;;;;0.77;0.60;;;19.30;44.80;;;;;;4996873;28;20050;-40
2021/01/27 10:12:39;;;;;;;0.73;0.55;;;19.30;44.80;;;;;;4996188;28;20049;-41
2021/01/27 10:15:32;;;;;;;1.00;0.70;;;19.30;44.70;;;;;;5013670;28;20050;-42
2021/01/27 10:18:12;;;;;;;0.63;0.60;;;19.30;44.70;;;;;;5013035;28;20417;-39
2021/01/27 10:20:41;;;;;;;0.73;0.60;;;19.30;45.40;;;;;;5011403;28;20061;-39
2021/01/27 10:23:10;;;;;;;0.80;0.60;;;19.30;44.70;;;;;;5012728;28;20104;-39
2021/01/27 10:25:38;;;;;;;1.00;0.70;;;19.30;44.70;;;;;;5010845;28;20069;-40
2021/01/27 10:28:18;;;;;;;0.90;0.63;;;19.40;44.80;;;;;;5012203;28;20073;-39
2021/01/27 10:30:57;;;;;;;0.80;0.68;;;19.40;44.80;;;;;;5012209;28;20428;-40
2021/01/27 10:33:48;;;;;;;0.57;0.50;;;19.40;44.90;;;;;;5010519;28;20457;-39
2021/01/27 10:36:46;;;;;;;0.80;0.70;;;19.40;44.80;;;;;;5012245;28;20053;-42
2021/01/27 10:39:23;;;;;;;0.70;0.68;;;19.40;44.80;;;;;;4991634;28;20660;-39
2021/01/27 10:42:04;;;;;;;0.60;0.57;;;19.40;44.80;;;;;;4990789;28;20498;-43
2021/01/27 10:44:34;;;;;;;0.80;0.50;;;19.40;45.00;;;;;;4991399;28;20442;-40
2021/01/27 10:47:13;;;;;;;0.90;0.60;;;19.40;44.80;;;;;;4990779;28;20046;-39
2021/01/27 10:49:46;;;;;;;0.85;0.65;;;19.40;44.80;;;;;;4990657;28;20417;-41
2021/01/27 10:52:24;;;;;;;0.77;0.50;;;19.40;44.80;;;;;;4990654;28;20050;-40
2021/01/27 10:55:02;;;;;;;1.08;0.60;;;19.40;44.80;;;;;;4990643;28;20161;-40
2021/01/27 10:57:29;;;;;;;0.98;0.68;;;19.40;44.80;;;;;;4990668;28;20050;-40
2021/01/27 10:59:56;;;;;;;1.35;0.88;;;19.40;44.80;;;;;;4989166;28;20510;-42
2021/01/27 11:02:23;;;;;;;0.70;0.55;;;19.40;44.80;;;;;;4990391;28;20082;-39
2021/01/27 11:04:50;;;;;;;0.57;0.50;;;19.40;44.80;;;;;;4989003;28;20053;-39
2021/01/27 11:07:16;;;;;;;0.65;0.50;;;19.40;44.80;;;;;;4974323;28;20121;-39
2021/01/27 11:09:46;;;;;;;0.90;0.73;;;19.40;44.80;;;;;;4988675;28;20118;-39
2021/01/27 11:12:13;;;;;;;0.63;0.50;;;19.40;44.80;;;;;;4988615;28;20634;-39
2021/01/27 11:14:40;;;;;;;0.90;0.70;;;19.40;44.80;;;;;;4990931;28;20061;-40
2021/01/27 11:17:06;;;;;;;0.80;0.60;;;19.40;44.80;;;;;;5012390;28;20188;-40
2021/01/27 11:19:33;;;;;;;0.65;0.60;;;19.40;44.80;;;;;;5011479;28;20054;-40
2021/01/27 11:22:00;;;;;;;0.60;0.50;;;19.40;44.80;;;;;;5011059;28;20417;-40
2021/01/27 11:24:26;;;;;;;0.55;0.55;;;19.40;44.80;;;;;;5009504;28;20583;-39
2021/01/27 11:26:53;;;;;;;1.08;0.80;;;19.40;44.80;;;;;;5010772;28;20046;-39
2021/01/27 11:29:19;;;;;;;1.00;0.70;;;19.40;44.70;;;;;;5011068;28;20137;-38
2021/01/27 11:31:47;;;;;;;0.60;0.50;;;19.40;44.70;;;;;;5011067;28;20046;-39
2021/01/27 11:34:15;;;;;;;0.88;0.63;;;19.40;44.70;;;;;;5009770;28;20041;-39
2021/01/27 11:36:41;;;;;;;0.88;0.63;;;19.40;44.70;;;;;;5026293;28;20073;-40
2021/01/27 11:39:10;;;;;;;0.73;0.63;;;19.40;44.80;;;;;;5026127;28;20125;-39
2021/01/27 11:41:37;;;;;;;0.90;0.60;;;19.40;44.70;;;;;;5011934;28;20054;-39
2021/01/27 11:44:09;;;;;;;1.20;0.85;;;19.40;44.70;;;;;;5012675;28;20053;-39
2021/01/27 11:46:36;;;;;;;1.13;0.73;;;19.40;44.70;;;;;;5010927;28;20049;-41
2021/01/27 11:49:03;;;;;;;0.90;0.52;;;19.40;44.80;;;;;;5010449;28;20085;-39
2021/01/27 11:51:30;;;;;;;0.90;0.63;;;19.40;44.80;;;;;;5010908;28;20049;-39
2021/01/27 11:53:57;;;;;;;0.70;0.60;;;19.50;44.80;;;;;;5009486;28;20041;-39
2021/01/27 11:56:24;;;;;;;1.00;0.80;;;19.40;44.70;;;;;;5009033;28;20081;-39
2021/01/27 11:58:50;;;;;;;0.88;0.55;;;19.50;44.80;;;;;;5009342;28;20080;-38
2021/01/27 12:01:17;;;;;;;0.68;0.60;;;19.40;44.70;;;;;;5013272;28;20049;-39
2021/01/27 12:03:47;;;;;;;1.23;0.70;;;19.50;44.80;;;;;;5023879;28;20053;-39
2021/01/27 12:06:14;;;;;;;0.85;0.63;;;19.40;44.80;;;;;;5010601;28;20081;-40
2021/01/27 12:08:40;;;;;;;0.77;0.70;;;19.50;44.80;;;;;;5009829;28;20057;-40
2021/01/27 12:11:07;;;;;;;1.50;0.88;;;19.50;44.80;;;;;;5026689;28;20045;-39
2021/01/27 12:13:33;;;;;;;0.90;0.65;;;19.50;44.80;;;;;;5010770;28;20116;-39
2021/01/27 12:16:00;;;;;;;0.63;0.63;;;19.50;44.80;;;;;;5010442;28;20046;-39
2021/01/27 12:18:27;;;;;;;0.60;0.60;;;19.50;44.80;;;;;;5010177;28;20103;-39
2021/01/27 12:20:53;;;;;;;0.90;0.70;;;19.50;44.80;;;;;;5009056;28;20465;-39
2021/01/27 12:23:20;;;;;;;0.63;0.60;;;19.50;44.80;;;;;;5009089;28;20058;-39
2021/01/27 12:25:47;;;;;;;0.95;0.70;;;19.50;44.80;;;;;;5008107;28;20084;-41
2021/01/27 12:28:14;;;;;;;0.75;0.63;;;19.50;44.80;;;;;;5008864;28;20473;-39
2021/01/27 12:30:41;;;;;;;0.75;0.63;;;19.50;44.80;;;;;;5009932;28;20413;-41
2021/01/27 12:33:09;;;;;;;0.60;0.60;;;19.50;44.80;;;;;;5009977;28;20049;-39
2021/01/27 12:35:37;;;;;;;1.05;0.80;;;19.50;44.80;;;;;;5010871;28;20134;-38
2021/01/27 12:38:04;;;;;;;1.00;0.60;;;19.50;44.80;;;;;;5011388;28;20049;-39
2021/01/27 12:40:31;;;;;;;1.35;0.50;;;19.50;44.80;;;;;;5025211;28;20450;-39
2021/01/27 12:42:58;;;;;;;1.25;0.73;;;19.50;44.80;;;;;;5009773;28;20049;-39
2021/01/27 12:45:27;;;;;;;0.70;0.52;;;19.50;44.80;;;;;;5008565;28;20406;-42
2021/01/27 12:47:54;;;;;;;0.98;0.63;;;19.50;44.80;;;;;;5009618;28;20041;-39
2021/01/27 12:50:22;;;;;;;0.57;0.57;;;19.50;44.80;;;;;;5010025;28;20405;-39
2021/01/27 12:52:49;;;;;;;1.13;0.85;;;19.50;44.80;;;;;;5010180;28;20096;-40
2021/01/27 12:55:18;;;;;;;0.90;0.75;;;19.50;44.80;;;;;;5010973;28;20473;-39
2021/01/27 12:57:46;;;;;;;0.65;0.57;;;19.50;44.80;;;;;;5008275;28;20560;-39
2021/01/27 13:00:20;;;;;;;0.60;0.50;;;19.50;44.90;;;;;;5009453;28;20148;-38
2021/01/27 13:02:51;;;;;;;2.28;0.70;;;19.50;44.80;;;;;;5022439;28;20469;-40
2021/01/27 13:05:20;;;;;;;0.80;0.68;;;19.50;44.80;;;;;;5009754;28;20096;-40
2021/01/27 13:07:47;;;;;;;0.70;0.70;;;19.50;44.80;;;;;;5010908;28;20050;-41
2021/01/27 13:10:14;;;;;;;1.13;0.65;;;19.50;44.90;;;;;;5008943;28;20089;-39
2021/01/27 13:12:43;;;;;;;0.73;0.60;;;19.50;44.90;;;;;;5008232;28;20053;-40
2021/01/27 13:15:20;;;;;;;1.05;0.60;;;19.50;44.80;;;;;;5009396;28;20054;-41
2021/01/27 13:17:48;;;;;;;1.30;0.70;;;19.50;44.90;;;;;;5010682;28;20190;-41
2021/01/27 13:20:18;;;;;;;1.02;0.70;;;19.50;44.90;;;;;;5009485;28;20049;-43
2021/01/27 13:22:45;;;;;;;1.10;0.75;;;19.50;44.90;;;;;;5009528;28;20072;-42
2021/01/27 13:25:15;;;;;;;0.60;0.60;;;19.50;44.90;;;;;;5009223;28;20474;-39
2021/01/27 13:27:59;;;;;;;0.95;0.55;;;19.50;44.90;;;;;;5009338;28;20042;-42